createdAt,value
2018-06-24T00:02:25.307Z,69.87
2018-06-24T00:04:59.152Z,70.80
2018-06-24T00:07:33.028Z,69.31
2018-06-24T00:10:07.029Z,68.43
2018-06-24T00:12:40.803Z,69.08
2018-06-24T00:15:14.855Z,70.71
2018-06-24T00:17:48.702Z,71.18
2018-06-24T00:20:22.524Z,69.94
2018-06-24T00:22:56.576Z,69.53
2018-06-24T00:25:30.707Z,70.37
2018-06-24T00:28:04.586Z,70.47
2018-06-24T00:30:38.619Z,69.39
2018-06-24T00:33:12.870Z,69.91
2018-06-24T00:35:46.858Z,69.47
2018-06-24T00:38:20.810Z,70.22
2018-06-24T00:40:54.840Z,70.33
2018-06-24T00:43:28.738Z,69.53
2018-06-24T00:46:03.023Z,70.30
2018-06-24T00:48:36.902Z,69.54
2018-06-24T00:51:10.864Z,69.29
2018-06-24T00:53:44.783Z,69.35
2018-06-24T00:56:18.965Z,68.31
2018-06-24T00:58:53.077Z,68.83
2018-06-24T01:01:27.156Z,68.57
2018-06-24T01:04:01.155Z,68.39
2018-06-24T01:06:35.124Z,68.09
2018-06-24T01:09:09.079Z,69.65
2018-06-24T01:11:43.031Z,70.54
2018-06-24T01:14:16.959Z,70.23
2018-06-24T01:16:50.963Z,70.54
2018-06-24T01:19:24.824Z,69.98
2018-06-24T01:21:58.762Z,70.43
2018-06-24T01:24:32.536Z,70.14
2018-06-24T01:27:06.607Z,70.61
2018-06-24T01:29:40.560Z,70.09
2018-06-24T01:32:14.491Z,70.58
2018-06-24T01:34:48.962Z,70.01
2018-06-24T01:37:22.814Z,70.58
2018-06-24T01:39:56.700Z,69.22
2018-06-24T01:42:30.882Z,70.19
2018-06-24T01:45:04.791Z,70.48
2018-06-24T01:47:38.882Z,70.57
2018-06-24T01:50:12.751Z,70.91
2018-06-24T01:52:46.718Z,71.60
2018-06-24T01:55:20.761Z,71.76
2018-06-24T01:57:54.791Z,71.84
2018-06-24T02:00:28.775Z,71.15
2018-06-24T02:03:02.740Z,72.30
2018-06-24T02:05:36.699Z,72.46
2018-06-24T02:08:10.753Z,72.80
2018-06-24T02:10:44.560Z,72.86
2018-06-24T02:13:18.498Z,73.52
2018-06-24T02:15:52.343Z,72.02
2018-06-24T02:18:26.256Z,72.89
2018-06-24T02:21:01.216Z,72.69
2018-06-24T02:23:35.206Z,72.42
2018-06-24T02:26:09.106Z,72.61
2018-06-24T02:28:43.115Z,73.03
2018-06-24T02:31:17.115Z,71.28
2018-06-24T02:33:51.192Z,72.42
2018-06-24T02:36:25.103Z,72.85
2018-06-24T02:38:59.088Z,72.68
2018-06-24T02:41:32.973Z,72.48
2018-06-24T02:44:07.143Z,72.92
2018-06-24T02:46:41.046Z,73.71
2018-06-24T02:49:15.121Z,74.86
2018-06-24T02:51:49.130Z,74.71
2018-06-24T02:54:23.191Z,75.10
2018-06-24T02:56:57.199Z,74.77
2018-06-24T02:59:31.352Z,73.66
2018-06-24T03:02:05.119Z,74.00
2018-06-24T03:04:39.179Z,73.71
2018-06-24T03:07:13.070Z,74.26
2018-06-24T03:09:47.123Z,73.41
2018-06-24T03:12:21.218Z,73.26
2018-06-24T03:14:55.133Z,73.23
2018-06-24T03:17:28.991Z,71.83
2018-06-24T03:20:03.267Z,74.25
2018-06-24T03:22:37.215Z,74.19
2018-06-24T03:25:11.228Z,73.11
2018-06-24T03:27:45.401Z,73.40
2018-06-24T03:30:19.376Z,72.96
2018-06-24T03:32:53.853Z,73.83
2018-06-24T03:35:28.015Z,72.42
2018-06-24T03:38:02.152Z,72.82
2018-06-24T03:40:36.120Z,71.83
2018-06-24T03:43:09.956Z,72.81
2018-06-24T03:45:44.528Z,71.62
2018-06-24T03:48:18.414Z,72.32
2018-06-24T03:50:52.566Z,71.89
2018-06-24T03:53:26.534Z,72.25
2018-06-24T03:56:00.635Z,72.11
2018-06-24T03:58:34.616Z,71.29
2018-06-24T04:01:08.459Z,72.07
2018-06-24T04:03:42.472Z,70.88
2018-06-24T04:06:16.786Z,71.48
2018-06-24T04:08:50.996Z,71.79
2018-06-24T04:11:24.803Z,71.13
2018-06-24T04:13:58.609Z,70.15
2018-06-24T04:16:32.667Z,70.04
2018-06-24T04:19:06.553Z,69.31
2018-06-24T04:21:40.402Z,71.62
2018-06-24T04:24:14.415Z,71.74
2018-06-24T04:26:48.366Z,71.03
2018-06-24T04:29:22.215Z,69.88
2018-06-24T04:31:56.303Z,69.66
2018-06-24T04:34:30.454Z,69.94
2018-06-24T04:37:04.768Z,68.61
2018-06-24T04:39:38.831Z,68.02
2018-06-24T04:42:12.772Z,67.00
2018-06-24T04:44:46.676Z,67.98
2018-06-24T04:47:20.625Z,66.16
2018-06-24T04:49:54.548Z,68.18
2018-06-24T04:52:28.805Z,68.40
2018-06-24T04:55:02.791Z,67.96
2018-06-24T04:57:36.845Z,66.94
2018-06-24T05:00:10.851Z,66.57
2018-06-24T05:02:44.872Z,65.67
2018-06-24T05:05:18.828Z,66.87
2018-06-24T05:07:53.090Z,67.62
2018-06-24T05:11:51.507Z,67.06
2018-06-24T05:14:26.330Z,66.76
2018-06-24T05:17:00.476Z,68.63
2018-06-24T05:19:34.437Z,69.25
2018-06-24T05:22:08.620Z,68.51
2018-06-24T05:24:42.856Z,66.86
2018-06-24T05:27:16.809Z,66.01
2018-06-24T05:29:50.647Z,65.83
2018-06-24T05:32:25.115Z,66.78
2018-06-24T05:34:59.021Z,65.28
2018-06-24T05:37:32.837Z,64.56
2018-06-24T05:40:07.855Z,64.39
2018-06-24T05:42:41.885Z,64.72
2018-06-24T05:45:16.021Z,63.85
2018-06-24T05:47:50.077Z,64.07
2018-06-24T05:50:23.980Z,62.76
2018-06-24T05:52:57.860Z,62.84
2018-06-24T05:55:32.065Z,61.81
2018-06-24T05:58:06.124Z,62.07
2018-06-24T06:00:40.189Z,65.20
2018-06-24T06:03:14.172Z,63.36
2018-06-24T06:05:47.937Z,65.57
2018-06-24T06:08:21.704Z,63.73
2018-06-24T06:10:55.566Z,62.88
2018-06-24T06:13:29.592Z,62.11
2018-06-24T06:16:03.612Z,63.23
2018-06-24T06:18:37.733Z,61.84
2018-06-24T06:21:11.713Z,57.28
2018-06-24T06:23:45.775Z,57.90
2018-06-24T06:26:20.766Z,56.79
2018-06-24T06:28:54.633Z,55.91
2018-06-24T06:31:28.742Z,58.06
2018-06-24T06:34:02.601Z,59.75
2018-06-24T06:36:36.616Z,57.78
2018-06-24T06:39:10.785Z,60.13
2018-06-24T06:41:45.083Z,58.63
2018-06-24T06:44:19.007Z,59.15
2018-06-24T06:46:53.074Z,57.34
2018-06-24T06:49:27.111Z,55.43
2018-06-24T06:52:01.121Z,55.15
2018-06-24T06:54:29.457Z,54.97
2018-06-24T06:56:58.021Z,55.21
2018-06-24T06:59:26.287Z,55.43
2018-06-24T07:01:54.019Z,53.87
2018-06-24T07:04:22.399Z,55.76
2018-06-24T07:06:50.263Z,53.51
2018-06-24T07:09:18.227Z,52.80
2018-06-24T07:11:46.058Z,51.93
2018-06-24T07:14:13.948Z,50.62
2018-06-24T07:16:42.048Z,53.84
2018-06-24T07:19:10.198Z,51.70
2018-06-24T07:21:38.181Z,51.04
2018-06-24T07:24:06.016Z,51.75
2018-06-24T07:26:33.836Z,50.30
2018-06-24T07:29:01.702Z,49.66
2018-06-24T07:31:29.514Z,46.79
2018-06-24T07:33:57.362Z,48.48
2018-06-24T07:36:25.938Z,50.32
2018-06-24T07:38:53.771Z,50.47
2018-06-24T07:41:21.734Z,49.21
2018-06-24T07:43:49.967Z,51.14
2018-06-24T07:46:17.823Z,50.77
2018-06-24T07:48:45.768Z,48.65
2018-06-24T07:51:14.099Z,48.80
2018-06-24T07:53:41.956Z,49.57
2018-06-24T07:56:09.807Z,48.80
2018-06-24T07:58:37.636Z,47.11
2018-06-24T08:01:05.492Z,47.54
2018-06-24T08:03:33.345Z,44.43
2018-06-24T08:06:01.292Z,45.11
2018-06-24T08:08:29.160Z,45.81
2018-06-24T08:10:56.969Z,48.09
2018-06-24T08:13:24.834Z,46.87
2018-06-24T08:15:52.855Z,46.53
2018-06-24T08:18:20.721Z,46.29
2018-06-24T08:20:48.683Z,46.21
2018-06-24T08:23:16.529Z,48.06
2018-06-24T08:25:44.405Z,43.60
2018-06-24T08:28:12.447Z,43.29
2018-06-24T08:30:40.277Z,43.26
2018-06-24T08:33:08.122Z,42.91
2018-06-24T08:35:36.047Z,43.08
2018-06-24T08:38:04.161Z,46.58
2018-06-24T08:40:32.840Z,47.69
2018-06-24T08:43:00.682Z,46.99
2018-06-24T08:45:28.599Z,47.88
2018-06-24T08:47:56.472Z,46.26
2018-06-24T08:50:24.598Z,48.30
2018-06-24T08:52:55.674Z,48.22
2018-06-24T08:55:23.523Z,46.03
2018-06-24T08:57:51.396Z,45.56
2018-06-24T09:00:19.490Z,45.83
2018-06-24T09:02:47.339Z,44.54
2018-06-24T09:05:15.224Z,46.20
2018-06-24T09:07:43.145Z,41.70
2018-06-24T09:10:11.035Z,43.15
2018-06-24T09:12:38.955Z,40.90
2018-06-24T09:15:07.144Z,40.89
2018-06-24T09:17:34.998Z,41.04
2018-06-24T09:20:03.446Z,40.12
2018-06-24T09:22:31.312Z,36.93
2018-06-24T09:24:59.285Z,40.50
2018-06-24T09:27:27.155Z,40.58
2018-06-24T09:29:55.028Z,40.77
2018-06-24T09:32:22.847Z,40.68
2018-06-24T09:34:50.916Z,40.36
2018-06-24T09:37:18.727Z,43.83
2018-06-24T09:39:46.550Z,44.66
2018-06-24T09:42:14.537Z,44.00
2018-06-24T09:44:42.393Z,44.11
2018-06-24T09:47:10.200Z,43.91
2018-06-24T09:49:38.131Z,42.88
2018-06-24T09:52:11.218Z,42.48
2018-06-24T09:54:39.532Z,41.79
2018-06-24T09:57:07.376Z,41.68
2018-06-24T09:59:35.200Z,40.81
2018-06-24T10:02:03.144Z,40.80
2018-06-24T10:04:30.965Z,41.10
2018-06-24T10:06:58.780Z,40.83
2018-06-24T10:09:26.683Z,42.35
2018-06-24T10:11:54.489Z,41.92
2018-06-24T10:14:22.273Z,41.60
2018-06-24T10:16:50.176Z,42.27
2018-06-24T10:19:18.012Z,41.19
2018-06-24T10:21:45.961Z,40.42
2018-06-24T10:24:13.863Z,41.93
2018-06-24T10:26:41.704Z,42.26
2018-06-24T10:29:09.540Z,42.40
2018-06-24T10:31:37.411Z,42.43
2018-06-24T10:34:05.253Z,39.33
2018-06-24T10:36:33.090Z,40.90
2018-06-24T10:39:01.105Z,39.55
2018-06-24T10:41:28.955Z,40.93
2018-06-24T10:43:56.771Z,40.30
2018-06-24T10:46:24.635Z,42.60
2018-06-24T10:48:52.444Z,41.85
2018-06-24T10:51:20.247Z,40.89
2018-06-24T10:53:48.922Z,41.56
2018-06-24T10:56:16.852Z,40.75
2018-06-24T10:58:44.651Z,42.25
2018-06-24T11:01:12.552Z,41.35
2018-06-24T11:03:40.372Z,42.16
2018-06-24T11:06:08.220Z,41.95
2018-06-24T11:08:36.084Z,39.64
2018-06-24T11:11:03.968Z,37.98
2018-06-24T11:13:31.772Z,38.07
2018-06-24T11:15:59.619Z,37.35
2018-06-24T11:18:27.413Z,39.95
2018-06-24T11:20:55.211Z,40.85
2018-06-24T11:23:23.147Z,40.90
2018-06-24T11:25:50.934Z,42.08
2018-06-24T11:28:18.737Z,40.77
2018-06-24T11:30:46.687Z,39.98
2018-06-24T11:33:14.547Z,39.51
2018-06-24T11:35:42.636Z,40.11
2018-06-24T11:38:10.581Z,39.52
2018-06-24T11:40:38.427Z,39.64
2018-06-24T11:43:06.283Z,37.91
2018-06-24T11:45:34.179Z,40.49
2018-06-24T11:48:01.991Z,36.96
2018-06-24T11:50:29.799Z,39.58
2018-06-24T11:52:57.650Z,37.83
2018-06-24T11:55:25.592Z,37.22
2018-06-24T11:57:53.482Z,36.63
2018-06-24T12:00:21.424Z,37.37
2018-06-24T12:02:49.238Z,37.64
2018-06-24T12:05:17.064Z,36.07
2018-06-24T12:07:46.695Z,35.88
2018-06-24T12:10:14.571Z,35.50
2018-06-24T12:12:42.412Z,38.41
2018-06-24T12:15:10.388Z,38.12
2018-06-24T12:17:38.278Z,38.35
2018-06-24T12:20:06.269Z,40.24
2018-06-24T12:22:34.150Z,41.00
2018-06-24T12:25:01.983Z,38.89
2018-06-24T12:27:29.898Z,40.09
2018-06-24T12:29:57.941Z,39.19
2018-06-24T12:32:25.879Z,39.93
2018-06-24T12:34:53.676Z,40.42
2018-06-24T12:37:21.540Z,40.33
2018-06-24T12:39:49.361Z,38.93
2018-06-24T12:42:17.306Z,41.01
2018-06-24T12:44:45.172Z,38.89
2018-06-24T12:47:13.024Z,39.38
2018-06-24T12:49:40.859Z,40.54
2018-06-24T12:52:08.845Z,39.93
2018-06-24T12:54:36.666Z,38.93
2018-06-24T12:57:04.511Z,36.76
2018-06-24T12:59:32.740Z,33.93
2018-06-24T13:02:00.505Z,34.59
2018-06-24T13:04:28.328Z,34.80
2018-06-24T13:06:56.218Z,33.89
2018-06-24T13:09:24.265Z,34.12
2018-06-24T13:11:52.082Z,35.03
2018-06-24T13:14:19.988Z,33.39
2018-06-24T13:16:47.825Z,34.07
2018-06-24T13:19:15.652Z,34.97
2018-06-24T13:21:43.548Z,35.83
2018-06-24T13:24:12.277Z,34.02
2018-06-24T13:26:40.372Z,34.27
2018-06-24T13:29:08.239Z,37.14
2018-06-24T13:31:36.110Z,34.72
2018-06-24T13:34:03.999Z,35.11
2018-06-24T13:36:31.957Z,37.88
2018-06-24T13:39:00.020Z,39.87
2018-06-24T13:41:27.995Z,40.35
2018-06-24T13:43:55.894Z,40.74
2018-06-24T13:46:23.716Z,39.43
2018-06-24T13:48:51.522Z,41.27
2018-06-24T13:51:19.370Z,41.62
2018-06-24T13:53:47.163Z,41.71
2018-06-24T13:56:14.988Z,42.04
2018-06-24T13:58:42.895Z,42.37
2018-06-24T14:01:10.813Z,41.65
2018-06-24T14:03:38.684Z,42.18
2018-06-24T14:06:06.681Z,41.71
2018-06-24T14:08:34.640Z,42.00
2018-06-24T14:11:02.475Z,40.48
2018-06-24T14:13:30.373Z,41.68
2018-06-24T14:15:58.732Z,42.77
2018-06-24T14:18:26.564Z,42.03
2018-06-24T14:20:54.686Z,42.47
2018-06-24T14:23:22.586Z,42.40
2018-06-24T14:25:50.436Z,42.85
2018-06-24T14:28:18.293Z,42.80
2018-06-24T14:30:46.201Z,42.06
2018-06-24T14:33:14.044Z,43.05
2018-06-24T14:35:41.946Z,43.54
2018-06-24T14:38:09.802Z,42.62
2018-06-24T14:40:37.631Z,42.35
2018-06-24T14:43:05.965Z,42.85
2018-06-24T14:45:34.391Z,44.11
2018-06-24T14:48:02.252Z,44.71
2018-06-24T14:50:30.252Z,44.96
2018-06-24T14:52:58.122Z,43.86
2018-06-24T14:55:26.102Z,44.02
2018-06-24T14:57:53.985Z,44.32
2018-06-24T15:00:22.086Z,43.91
2018-06-24T15:02:50.005Z,43.10
2018-06-24T15:05:17.976Z,44.76
2018-06-24T15:07:46.578Z,44.80
2018-06-24T15:10:14.453Z,44.17
2018-06-24T15:12:42.405Z,44.31
2018-06-24T15:15:10.388Z,43.81
2018-06-24T15:17:38.351Z,44.16
2018-06-24T15:20:06.259Z,44.85
2018-06-24T15:22:34.101Z,45.67
2018-06-24T15:25:02.056Z,45.74
2018-06-24T15:27:30.074Z,45.44
2018-06-24T15:29:57.939Z,46.20
2018-06-24T15:32:25.744Z,47.18
2018-06-24T15:34:53.617Z,46.55
2018-06-24T15:37:21.470Z,45.19
2018-06-24T15:39:49.492Z,46.20
2018-06-24T15:42:20.951Z,47.66
2018-06-24T15:44:48.784Z,48.13
2018-06-24T15:47:16.669Z,47.11
2018-06-24T15:49:44.948Z,46.91
2018-06-24T15:52:12.820Z,47.68
2018-06-24T15:54:40.699Z,47.67
2018-06-24T15:57:08.608Z,48.15
2018-06-24T15:59:36.451Z,47.94
2018-06-24T16:02:04.366Z,48.59
2018-06-24T16:04:32.297Z,48.06
2018-06-24T16:07:00.138Z,49.06
2018-06-24T16:09:28.070Z,46.76
2018-06-24T16:11:56.241Z,47.02
2018-06-24T16:14:24.230Z,46.88
2018-06-24T16:16:52.224Z,47.74
2018-06-24T16:19:20.120Z,48.01
2018-06-24T16:21:47.940Z,48.41
2018-06-24T16:24:15.827Z,49.08
2018-06-24T16:26:43.735Z,48.95
2018-06-24T16:29:11.759Z,49.19
2018-06-24T16:31:40.392Z,48.96
2018-06-24T16:34:08.345Z,48.75
2018-06-24T16:36:36.466Z,49.32
2018-06-24T16:39:07.298Z,48.56
2018-06-24T16:41:36.009Z,48.32
2018-06-24T16:44:05.990Z,49.50
2018-06-24T16:46:33.974Z,49.01
2018-06-24T16:49:02.034Z,48.78
2018-06-24T16:51:29.916Z,54.07
2018-06-24T16:53:58.671Z,52.65
2018-06-24T16:56:26.773Z,52.09
2018-06-24T16:58:54.723Z,52.09
2018-06-24T17:01:22.790Z,51.86
2018-06-24T17:03:50.853Z,51.93
2018-06-24T17:06:21.271Z,54.53
2018-06-24T17:08:49.785Z,50.84
2018-06-24T17:11:17.859Z,50.77
2018-06-24T17:13:45.816Z,49.32
2018-06-24T17:16:13.790Z,49.36
2018-06-24T17:18:48.275Z,53.54
2018-06-24T17:21:16.190Z,53.02
2018-06-24T17:23:44.136Z,50.70
2018-06-24T17:26:12.153Z,50.15
2018-06-24T17:28:40.075Z,51.66
2018-06-24T17:31:08.043Z,52.45
2018-06-24T17:33:36.040Z,52.47
2018-06-24T17:36:04.083Z,52.17
2018-06-24T17:38:32.037Z,53.08
2018-06-24T17:41:00.062Z,53.25
2018-06-24T17:43:27.986Z,53.56
2018-06-24T17:45:55.943Z,56.07
2018-06-24T17:48:24.357Z,53.58
2018-06-24T17:50:52.289Z,54.63
2018-06-24T17:53:20.329Z,53.36
2018-06-24T17:55:48.349Z,52.93
2018-06-24T17:58:16.285Z,53.96
2018-06-24T18:00:44.242Z,53.39
2018-06-24T18:03:12.276Z,53.06
2018-06-24T18:05:40.424Z,54.09
2018-06-24T18:08:08.634Z,53.67
2018-06-24T18:10:36.608Z,53.57
2018-06-24T18:13:04.628Z,54.04
2018-06-24T18:15:32.556Z,54.76
2018-06-24T18:18:00.549Z,54.66
2018-06-24T18:20:28.531Z,54.90
2018-06-24T18:22:56.489Z,54.39
2018-06-24T18:25:24.641Z,54.19
2018-06-24T18:27:52.645Z,55.33
2018-06-24T18:30:20.602Z,54.87
2018-06-24T18:32:48.629Z,55.18
2018-06-24T18:35:16.557Z,56.27
2018-06-24T18:37:44.488Z,56.49
2018-06-24T18:40:12.484Z,57.19
2018-06-24T18:42:40.460Z,57.01
2018-06-24T18:45:08.415Z,57.67
2018-06-24T18:47:36.455Z,57.92
2018-06-24T18:50:04.760Z,57.90
2018-06-24T18:52:33.289Z,58.67
2018-06-24T18:55:01.282Z,58.10
2018-06-24T18:57:29.371Z,59.49
2018-06-24T18:59:57.460Z,60.34
2018-06-24T19:02:26.981Z,59.98
2018-06-24T19:04:55.315Z,60.93
2018-06-24T19:07:23.263Z,61.60
2018-06-24T19:09:51.870Z,60.00
2018-06-24T19:12:20.180Z,60.58
2018-06-24T19:14:48.544Z,61.42
2018-06-24T19:17:16.592Z,62.08
2018-06-24T19:19:44.532Z,62.08
2018-06-24T19:22:12.496Z,62.14
2018-06-24T19:24:40.990Z,62.00
2018-06-24T19:27:09.150Z,62.52
2018-06-24T19:29:37.830Z,62.51
2018-06-24T19:32:06.259Z,63.53
2018-06-24T19:34:34.469Z,62.66
2018-06-24T19:37:02.877Z,62.34
2018-06-24T19:39:30.855Z,61.75
2018-06-24T19:41:59.097Z,61.32
2018-06-24T19:44:27.121Z,61.99
2018-06-24T19:46:55.608Z,62.15
2018-06-24T19:49:24.345Z,62.66
2018-06-24T19:51:53.177Z,62.46
2018-06-24T19:54:22.589Z,62.00
2018-06-24T19:56:51.322Z,61.83
2018-06-24T19:59:40.658Z,61.21
2018-06-24T20:02:15.239Z,61.55
2018-06-24T20:04:49.533Z,59.75
2018-06-24T20:07:24.386Z,60.48
2018-06-24T20:09:58.872Z,61.24
2018-06-24T20:12:33.509Z,61.49
2018-06-24T20:15:07.900Z,60.86
2018-06-24T20:17:42.070Z,62.38
2018-06-24T20:20:16.274Z,62.87
2018-06-24T20:22:50.508Z,62.93
2018-06-24T20:25:25.330Z,63.55
2018-06-24T20:28:00.630Z,62.46
2018-06-24T20:30:34.617Z,62.33
2018-06-24T20:33:13.819Z,61.90
2018-06-24T20:35:47.814Z,62.83
2018-06-24T20:38:21.853Z,63.02
2018-06-24T20:40:55.915Z,62.51
2018-06-24T20:43:30.291Z,62.19
2018-06-24T20:46:05.064Z,62.47
2018-06-24T20:48:39.148Z,62.95
2018-06-24T20:51:13.063Z,63.71
2018-06-24T20:53:47.027Z,61.76
2018-06-24T20:56:24.327Z,62.88
2018-06-24T20:58:58.676Z,62.81
2018-06-24T21:01:32.880Z,62.84
2018-06-24T21:04:07.228Z,61.90
2018-06-24T21:06:41.136Z,64.38
2018-06-24T21:09:15.341Z,64.77
2018-06-24T21:11:49.549Z,65.07
2018-06-24T21:14:26.282Z,66.47
2018-06-24T21:17:00.408Z,67.91
2018-06-24T21:19:34.379Z,68.01
2018-06-24T21:22:08.561Z,68.29
2018-06-24T21:24:42.545Z,67.93
2018-06-24T21:27:16.607Z,68.66
2018-06-24T21:29:51.162Z,68.12
2018-06-24T21:32:25.470Z,68.63
2018-06-24T21:34:59.632Z,69.83
2018-06-24T21:37:34.636Z,70.03
2018-06-24T21:40:08.673Z,70.10
2018-06-24T21:42:43.084Z,70.76
2018-06-24T21:45:17.359Z,70.46
2018-06-24T21:47:51.481Z,70.90
2018-06-24T21:50:25.613Z,71.49
2018-06-24T21:52:59.955Z,70.71
2018-06-24T21:55:34.060Z,70.27
2018-06-24T21:58:08.181Z,70.60
2018-06-24T22:00:42.497Z,70.82
2018-06-24T22:03:17.191Z,70.41
2018-06-24T22:05:51.344Z,70.63
2018-06-24T22:08:25.439Z,70.60
2018-06-24T22:10:59.715Z,70.96
2018-06-24T22:13:34.008Z,70.79
2018-06-24T22:16:08.341Z,69.45
2018-06-24T22:18:43.058Z,69.08
2018-06-24T22:21:17.255Z,69.00
2018-06-24T22:23:51.608Z,69.24
2018-06-24T22:26:26.082Z,69.59
2018-06-24T22:29:00.291Z,69.60
2018-06-24T22:31:34.346Z,70.43
2018-06-24T22:34:08.427Z,70.39
2018-06-24T22:36:42.458Z,69.97
2018-06-24T22:39:16.418Z,70.43
2018-06-24T22:41:50.428Z,69.08
2018-06-24T22:44:24.491Z,69.50
2018-06-24T22:46:58.462Z,69.95
2018-06-24T22:49:32.478Z,68.77
2018-06-24T22:52:06.639Z,70.50
2018-06-24T22:54:40.636Z,70.69
2018-06-24T22:57:14.464Z,71.33
2018-06-24T23:00:23.495Z,72.22
2018-06-24T23:03:02.574Z,72.23
2018-06-24T23:05:37.460Z,72.50
2018-06-24T23:08:11.385Z,72.70
2018-06-24T23:10:45.421Z,72.90
2018-06-24T23:13:19.427Z,72.08
2018-06-24T23:15:53.657Z,71.65
2018-06-24T23:18:27.652Z,72.53
2018-06-24T23:21:01.795Z,71.93
2018-06-24T23:23:35.950Z,71.79
2018-06-24T23:26:10.000Z,71.94
2018-06-24T23:28:43.963Z,71.45
2018-06-24T23:31:18.138Z,71.74
2018-06-24T23:33:52.215Z,72.16
2018-06-24T23:36:26.230Z,72.02
2018-06-24T23:39:00.239Z,71.72
2018-06-24T23:41:34.172Z,71.98
2018-06-24T23:44:07.800Z,71.60
2018-06-24T23:46:41.938Z,71.51
2018-06-24T23:49:16.090Z,71.35
2018-06-24T23:51:50.060Z,71.84
2018-06-24T23:54:23.994Z,72.67
2018-06-24T23:56:58.063Z,73.20
2018-06-24T23:59:32.031Z,74.08
